Time;durP1;ratioP1;P1;durP2;ratioP2;P2;SDS_P1;SDS_P2;PMS_P1;PMS_P2;Temp;Humidity;BMP_temperature;BMP_pressure;BME280_temperature;BME280_humidity;BME280_pressure;Samples;Min_cycle;Max_cycle;Signal;HPM_P1;HPM_P2
2022/05/23 00:01:53;;;;;;;2.42;1.90;;;;;;;22.01;46.69;99157.78;4977800;28;20058;-82
2022/05/23 00:04:22;;;;;;;2.45;1.73;;;;;;;21.97;46.45;99158.47;4965407;28;20042;-82
2022/05/23 00:06:49;;;;;;;3.65;2.00;;;;;;;21.83;46.66;99160.47;4964458;28;20418;-82
2022/05/23 00:09:16;;;;;;;3.28;2.03;;;;;;;21.96;46.29;99156.81;4959781;28;20043;-82
2022/05/23 00:11:43;;;;;;;2.50;1.85;;;;;;;22.03;46.43;99147.59;4934405;28;20045;-82
2022/05/23 00:14:12;;;;;;;2.40;2.00;;;;;;;21.99;46.33;99135.56;4951054;28;20050;-82
2022/05/23 00:16:43;;;;;;;2.28;2.05;;;;;;;21.85;46.23;99139.47;4971936;28;20042;-92
2022/05/23 00:19:16;;;;;;;5.25;2.10;;;;;;;21.81;46.54;99136.41;4965208;28;20050;-87
2022/05/23 00:21:45;;;;;;;3.47;2.00;;;;;;;21.88;46.47;99141.75;4952711;28;20130;-92
2022/05/23 00:24:15;;;;;;;2.92;2.28;;;;;;;21.83;46.48;99145.13;4967559;28;20046;-91
2022/05/23 00:26:43;;;;;;;4.13;2.10;;;;;;;21.70;46.58;99139.84;4952000;28;20055;-84
2022/05/23 00:29:10;;;;;;;2.97;1.92;;;;;;;21.75;46.46;99137.28;4957599;28;20047;-86
2022/05/23 00:35:17;;;;;;;2.78;1.85;;;;;;;21.78;46.48;99133.31;4975546;28;20054;-82
2022/05/23 00:37:12;;;;;;;3.60;2.00;;;;;;;21.98;46.12;99130.38;4978088;28;20050;-82
2022/05/23 00:39:39;;;;;;;4.03;2.20;;;;;;;22.02;46.20;99118.88;4971204;28;20041;-82
2022/05/23 00:44:59;;;;;;;3.63;1.95;;;;;;;22.08;47.29;99117.13;4915011;28;20513;-82
2022/05/23 00:47:27;;;;;;;3.08;2.00;;;;;;;22.04;47.78;99102.44;4947558;28;20121;-82
2022/05/23 00:49:54;;;;;;;4.53;2.38;;;;;;;22.04;47.82;99087.03;4964862;28;20042;-82
2022/05/23 00:52:27;;;;;;;3.00;2.05;;;;;;;22.03;47.30;99100.78;4945962;28;20043;-82
2022/05/23 00:54:56;;;;;;;2.53;2.20;;;;;;;22.03;47.43;99106.19;4947272;28;20407;-82
2022/05/23 00:57:28;;;;;;;3.50;2.00;;;;;;;22.01;47.53;99108.31;4970176;28;20064;-91
2022/05/23 00:59:55;;;;;;;2.65;1.90;;;;;;;22.01;47.10;99103.72;4915797;28;22532;-92
2022/05/23 01:02:22;;;;;;;7.57;2.40;;;;;;;22.01;46.92;99097.50;4955319;28;20046;-90
2022/05/23 01:04:49;;;;;;;7.28;2.08;;;;;;;21.99;46.56;99095.00;4971954;28;20073;-91
2022/05/23 01:07:16;;;;;;;4.65;1.83;;;;;;;21.93;46.41;99097.78;4961468;28;20078;-82
2022/05/23 01:09:45;;;;;;;4.82;2.30;;;;;;;21.74;46.51;99091.59;4922176;28;20042;-84
2022/05/23 01:12:12;;;;;;;4.15;1.80;;;;;;;21.67;46.98;99089.78;4925967;28;20058;-82
2022/05/23 01:14:54;;;;;;;3.65;2.25;;;;;;;21.64;47.06;99087.53;4966507;28;20099;-82
2022/05/23 01:17:23;;;;;;;4.03;2.10;;;;;;;21.63;46.70;99076.97;4990240;28;20141;-82
2022/05/23 01:19:51;;;;;;;2.65;2.05;;;;;;;21.61;46.47;99079.88;4962840;28;20054;-82
2022/05/23 01:22:43;;;;;;;3.50;2.17;;;;;;;21.46;46.97;99074.84;4950836;28;20072;-82
2022/05/23 01:25:47;;;;;;;4.53;2.50;;;;;;;21.56;46.83;99066.22;4916391;28;20051;-83
2022/05/23 01:28:38;;;;;;;4.20;2.28;;;;;;;21.54;46.61;99064.81;4911789;28;20059;-85
2022/05/23 01:31:09;;;;;;;2.65;1.88;;;;;;;21.53;46.98;99047.78;4932685;28;20047;-85
2022/05/23 01:33:37;;;;;;;2.30;1.85;;;;;;;21.54;46.85;99040.50;4960346;28;20050;-86
2022/05/23 01:36:10;;;;;;;4.28;2.17;;;;;;;21.55;47.34;99031.34;4974619;28;20047;-85
2022/05/23 01:38:37;;;;;;;3.15;1.85;;;;;;;21.44;46.88;99030.22;4965492;28;20046;-91
2022/05/23 01:41:15;;;;;;;4.00;2.15;;;;;;;21.28;47.01;99023.53;4935596;28;20063;-91
2022/05/23 01:43:50;;;;;;;3.00;2.38;;;;;;;21.08;47.33;99021.03;4941452;28;20085;-83
2022/05/23 01:46:42;;;;;;;2.70;1.98;;;;;;;21.11;47.11;99020.59;4891286;28;22033;-82
2022/05/23 01:49:24;;;;;;;2.63;2.20;;;;;;;20.97;47.37;99027.19;4976565;28;20061;-83
2022/05/23 01:51:54;;;;;;;3.45;2.22;;;;;;;20.84;47.79;99021.91;4951400;28;20109;-83
2022/05/23 01:54:28;;;;;;;3.67;2.20;;;;;;;20.80;47.36;99027.75;4989900;28;20418;-83
2022/05/23 01:56:55;;;;;;;4.32;2.20;;;;;;;20.93;47.38;99031.38;4975587;28;20051;-84
2022/05/23 02:02:15;;;;;;;3.70;2.30;;;;;;;20.62;47.75;99040.38;4908561;28;20513;-87
2022/05/23 02:04:42;;;;;;;3.88;2.03;;;;;;;20.76;47.48;99036.50;4973730;28;20490;-84
2022/05/23 02:07:13;;;;;;;5.10;2.22;;;;;;;20.73;47.42;99034.25;4970612;28;20043;-82
2022/05/23 02:09:41;;;;;;;4.18;2.15;;;;;;;20.73;47.62;99035.06;4993781;28;20038;-84
2022/05/23 02:12:19;;;;;;;5.45;2.40;;;;;;;20.64;47.56;99032.91;4961875;28;20066;-84
2022/05/23 02:14:49;;;;;;;2.72;2.30;;;;;;;20.52;47.80;99027.34;4963708;28;20053;-85
2022/05/23 02:17:32;;;;;;;5.63;2.20;;;;;;;20.39;47.99;99007.53;4933954;28;20137;-93
2022/05/23 02:19:59;;;;;;;8.15;2.42;;;;;;;20.30;48.06;99008.88;4966578;28;20062;-92
2022/05/23 02:22:26;;;;;;;4.10;2.30;;;;;;;20.35;48.11;99011.72;4956898;28;20043;-92
2022/05/23 02:25:03;;;;;;;3.95;2.47;;;;;;;20.42;48.05;99008.13;4954911;28;20062;-92
2022/05/23 02:27:30;;;;;;;4.20;2.33;;;;;;;20.26;48.09;99009.50;4972013;28;20134;-91
2022/05/23 02:29:58;;;;;;;3.67;2.33;;;;;;;20.05;48.34;99014.22;4949118;28;20133;-83
2022/05/23 02:32:25;;;;;;;5.97;2.25;;;;;;;20.06;48.70;98999.69;4948331;28;20045;-83
2022/05/23 02:34:53;;;;;;;3.80;2.42;;;;;;;20.05;49.07;99006.13;4974326;28;20050;-83
2022/05/23 02:37:20;;;;;;;3.78;2.17;;;;;;;20.16;48.44;98999.22;4951067;28;20056;-83
2022/05/23 02:39:52;;;;;;;3.17;2.42;;;;;;;20.20;48.36;99003.13;4957269;28;20054;-83
2022/05/23 02:42:19;;;;;;;3.78;2.22;;;;;;;20.11;48.32;98990.94;4938316;28;20050;-83
2022/05/23 02:44:47;;;;;;;5.88;2.60;;;;;;;20.11;48.39;98988.25;4950188;28;20049;-84
2022/05/23 02:47:20;;;;;;;2.88;2.03;;;;;;;20.19;48.44;98981.78;4961692;28;20049;-87
2022/05/23 02:49:48;;;;;;;4.88;2.35;;;;;;;20.24;48.44;98974.69;4950654;28;20145;-86
2022/05/23 02:52:26;;;;;;;3.58;2.28;;;;;;;20.25;48.17;98979.03;4934377;28;20043;-86
2022/05/23 02:55:04;;;;;;;2.92;2.33;;;;;;;20.31;48.27;98969.25;4924003;28;20062;-87
2022/05/23 02:57:31;;;;;;;4.80;2.50;;;;;;;20.28;48.08;98969.69;4927584;28;20427;-83
2022/05/23 03:00:00;;;;;;;3.63;2.85;;;;;;;20.18;48.47;98964.78;4927192;28;20450;-83
2022/05/23 03:05:12;;;;;;;4.38;2.40;;;;;;;20.01;48.75;98950.19;4980982;28;20134;-82
2022/05/23 03:07:39;;;;;;;3.90;2.30;;;;;;;20.04;48.83;98947.06;4965977;28;20050;-83
2022/05/23 03:10:06;;;;;;;4.57;2.50;;;;;;;20.07;48.68;98933.94;4955290;28;20050;-83
2022/05/23 03:12:34;;;;;;;2.47;2.05;;;;;;;19.79;49.07;98937.06;4956753;28;20047;-83
2022/05/23 03:15:02;;;;;;;7.65;2.53;;;;;;;19.77;49.17;98923.00;4934984;28;20406;-83
2022/05/23 03:17:34;;;;;;;4.00;2.40;;;;;;;19.81;49.43;98924.19;4941096;28;20050;-82
2022/05/23 03:20:28;;;;;;;4.35;2.42;;;;;;;19.91;48.95;98932.63;4956313;28;20050;-82
2022/05/23 03:28:35;;;;;;;2.53;2.33;;;;;;;20.06;48.50;98932.31;4958541;28;20046;-83
2022/05/23 03:31:05;;;;;;;5.80;2.70;;;;;;;20.21;48.38;98928.47;4977743;28;20532;-82
2022/05/23 03:33:34;;;;;;;3.35;2.47;;;;;;;20.12;48.65;98936.00;4980063;28;20051;-82
2022/05/23 03:36:02;;;;;;;4.22;2.53;;;;;;;19.97;48.60;98951.66;4952469;28;20045;-82
2022/05/23 03:38:28;;;;;;;4.30;2.58;;;;;;;19.92;48.81;98945.06;4944949;28;20461;-81
2022/05/23 03:40:55;;;;;;;5.57;2.42;;;;;;;19.84;48.94;98950.69;4973001;28;20042;-80
2022/05/23 03:43:22;;;;;;;4.90;2.88;;;;;;;19.67;49.29;98942.31;4958204;28;20407;-81
2022/05/23 03:45:50;;;;;;;5.20;2.53;;;;;;;19.52;49.85;98939.06;4960515;28;20055;-81
2022/05/23 03:48:17;;;;;;;4.57;2.90;;;;;;;19.53;49.74;98946.91;4988433;28;20042;-82
2022/05/23 03:50:44;;;;;;;5.50;3.00;;;;;;;19.56;50.00;98959.13;4969860;28;20046;-82
2022/05/23 03:53:11;;;;;;;3.40;2.65;;;;;;;19.51;49.66;98967.88;4973949;28;20070;-81
2022/05/23 03:55:53;;;;;;;4.05;2.65;;;;;;;19.46;49.86;98969.53;4968753;28;20074;-82
2022/05/23 03:58:28;;;;;;;6.03;2.80;;;;;;;19.47;50.04;98977.41;4970352;28;20043;-82
2022/05/23 04:01:21;;;;;;;4.40;2.53;;;;;;;19.65;49.62;98981.25;4973305;28;20054;-81
2022/05/23 04:04:09;;;;;;;7.47;2.80;;;;;;;19.80;49.20;98994.47;4934470;28;20047;-81
2022/05/23 04:06:38;;;;;;;5.25;2.80;;;;;;;19.92;49.06;98998.09;4957038;28;20053;-79
2022/05/23 04:09:06;;;;;;;4.82;2.20;;;;;;;20.12;48.75;99009.63;4964617;28;20490;-83
2022/05/23 04:11:40;;;;;;;4.10;2.70;;;;;;;20.29;48.47;99038.72;4965786;28;20045;-85
2022/05/23 04:14:38;;;;;;;3.92;2.70;;;;;;;20.38;48.61;99102.13;4952357;28;20052;-84
2022/05/23 04:17:08;;;;;;;3.65;2.75;;;;;;;20.55;48.72;99159.09;4903215;28;20050;-84
2022/05/23 04:19:43;;;;;;;5.43;2.58;;;;;;;20.62;49.45;99196.84;4961666;28;20061;-87
2022/05/23 04:22:18;;;;;;;3.42;2.70;;;;;;;20.54;48.41;99203.28;4961608;28;20062;-81
2022/05/23 04:28:45;;;;;;;4.10;2.70;;;;;;;20.68;49.55;99193.25;4942363;28;20046;-81
2022/05/23 04:31:16;;;;;;;3.78;2.92;;;;;;;20.70;50.57;99180.38;4981117;28;20072;-82
2022/05/23 04:36:58;;;;;;;4.50;3.28;;;;;;;20.70;51.35;99178.50;4924307;28;20042;-82
2022/05/23 04:39:36;;;;;;;7.63;2.83;;;;;;;20.67;51.70;99176.25;4968883;28;20049;-82
2022/05/23 04:42:03;;;;;;;3.45;2.63;;;;;;;20.63;52.44;99174.19;4957658;28;20435;-81
2022/05/23 04:44:30;;;;;;;3.92;3.13;;;;;;;20.59;52.37;99181.91;4983761;28;20054;-82
2022/05/23 04:49:49;;;;;;;5.07;3.25;;;;;;;20.56;53.61;99179.66;4935054;28;20047;-79
2022/05/23 04:52:37;;;;;;;9.32;3.72;;;;;;;20.51;54.36;99165.94;4922179;28;20668;-79
2022/05/23 04:55:04;;;;;;;11.40;3.95;;;;;;;20.46;54.74;99172.00;4940938;28;20063;-81
2022/05/23 04:57:33;;;;;;;6.82;3.88;;;;;;;20.44;54.95;99165.97;4941669;28;20051;-81
2022/05/23 05:00:06;;;;;;;12.65;4.30;;;;;;;20.39;55.74;99155.84;4945519;28;20165;-80
2022/05/23 05:02:39;;;;;;;9.82;4.20;;;;;;;20.34;55.49;99152.13;4914591;28;20096;-81
2022/05/23 05:05:08;;;;;;;8.52;4.00;;;;;;;20.26;55.74;99150.53;4915147;28;20053;-79
2022/05/23 05:07:48;;;;;;;9.15;4.00;;;;;;;20.20;55.65;99153.25;4921633;28;20057;-79
2022/05/23 05:10:15;;;;;;;15.32;4.32;;;;;;;20.17;56.45;99154.50;4952241;28;20065;-81
2022/05/23 05:12:42;;;;;;;8.50;3.55;;;;;;;20.16;56.61;99142.88;4935646;28;20046;-81
2022/05/23 05:15:13;;;;;;;11.50;4.22;;;;;;;20.13;56.75;99118.25;4934108;28;20042;-81
2022/05/23 05:17:41;;;;;;;12.07;4.65;;;;;;;20.11;56.83;99113.06;4931662;28;20047;-78
2022/05/23 05:20:08;;;;;;;11.45;4.55;;;;;;;20.09;57.17;99107.06;4941050;28;20125;-81
2022/05/23 05:23:01;;;;;;;12.48;4.43;;;;;;;20.06;57.32;99094.00;4975744;28;20053;-81
2022/05/23 05:25:42;;;;;;;9.23;3.80;;;;;;;20.05;57.35;99075.34;4981519;28;20086;-81
2022/05/23 05:28:16;;;;;;;10.82;4.13;;;;;;;20.02;57.61;99065.81;4969786;28;20054;-80
2022/05/23 05:30:47;;;;;;;6.13;4.18;;;;;;;20.01;58.10;99045.31;4969975;28;20050;-78
2022/05/23 05:33:19;;;;;;;12.20;4.35;;;;;;;20.01;58.34;99036.41;4980462;28;20050;-81
2022/05/23 05:35:50;;;;;;;6.20;4.05;;;;;;;20.00;58.53;99014.03;4985416;28;20049;-81
2022/05/23 05:38:36;;;;;;;8.40;3.92;;;;;;;19.99;59.15;99006.16;4980415;28;20046;-81
2022/05/23 05:41:07;;;;;;;10.15;3.97;;;;;;;20.00;58.56;98988.94;4942077;28;20456;-81
2022/05/23 05:43:44;;;;;;;7.03;4.00;;;;;;;20.02;58.87;98984.16;4942579;28;20447;-81
2022/05/23 05:46:16;;;;;;;7.85;3.83;;;;;;;20.00;58.67;98967.38;4938561;28;20459;-81
2022/05/23 05:48:56;;;;;;;6.45;4.05;;;;;;;19.97;58.20;98957.03;4997464;28;20046;-78
2022/05/23 05:51:24;;;;;;;8.52;4.40;;;;;;;19.94;58.37;98948.34;4952311;28;20043;-78
2022/05/23 05:54:15;;;;;;;10.95;4.18;;;;;;;19.90;58.69;98914.00;4974164;28;20051;-78
2022/05/23 05:56:53;;;;;;;8.57;4.28;;;;;;;19.88;58.08;98879.19;4971418;28;20116;-78
2022/05/23 05:59:20;;;;;;;7.03;4.22;;;;;;;19.79;58.58;98874.28;4966064;28;20486;-80
2022/05/23 06:01:47;;;;;;;7.70;4.00;;;;;;;19.77;58.38;98879.06;4961645;28;20042;-78
2022/05/23 06:04:16;;;;;;;8.75;4.25;;;;;;;19.78;58.85;98853.78;4966292;28;20564;-81
2022/05/23 06:12:27;;;;;;;10.60;4.50;;;;;;;19.90;57.99;98823.22;4964228;28;19950;-82
2022/05/23 06:15:14;;;;;;;6.97;4.78;;;;;;;19.94;58.17;98813.63;4938954;28;20125;-81
2022/05/23 06:17:42;;;;;;;11.27;5.15;;;;;;;19.95;58.47;98811.78;4965408;28;20141;-82
2022/05/23 06:20:13;;;;;;;12.55;4.55;;;;;;;19.97;58.55;98801.59;4985902;28;20054;-78
2022/05/23 06:22:45;;;;;;;6.95;4.30;;;;;;;19.98;58.51;98795.16;4968089;28;20141;-78
2022/05/23 06:25:14;;;;;;;7.25;4.43;;;;;;;19.97;58.87;98793.50;4958895;28;20050;-81
2022/05/23 06:27:41;;;;;;;7.30;4.35;;;;;;;20.02;59.27;98780.19;4981893;28;20078;-81
2022/05/23 06:30:13;;;;;;;5.07;3.72;;;;;;;20.09;59.64;98772.84;4967814;28;20049;-81
2022/05/23 06:32:56;;;;;;;16.58;4.38;;;;;;;20.20;59.69;98765.06;4963504;28;20043;-81
2022/05/23 06:35:46;;;;;;;7.40;4.72;;;;;;;20.26;59.58;98766.88;4928998;28;20114;-81
2022/05/23 06:38:13;;;;;;;6.70;4.50;;;;;;;20.29;59.71;98769.13;4998027;28;20062;-81
2022/05/23 06:40:50;;;;;;;8.13;4.38;;;;;;;20.33;60.39;98775.72;4955492;28;20125;-81
2022/05/23 06:43:43;;;;;;;7.20;4.47;;;;;;;20.44;59.95;98780.34;4937066;28;20490;-82
2022/05/23 06:46:24;;;;;;;9.07;4.40;;;;;;;20.56;60.18;98775.06;4925417;28;20049;-82
2022/05/23 06:49:30;;;;;;;8.90;3.90;;;;;;;20.69;60.08;98782.19;4931470;28;20042;-82
2022/05/23 06:52:03;;;;;;;7.50;3.85;;;;;;;20.79;59.87;98780.56;4973663;28;20064;-79
2022/05/23 06:54:38;;;;;;;11.55;4.60;;;;;;;20.90;60.15;98783.56;4984484;28;20096;-81
2022/05/23 06:57:10;;;;;;;4.43;3.65;;;;;;;20.98;60.10;98784.03;4993579;28;20058;-80
2022/05/23 06:59:37;;;;;;;7.68;3.97;;;;;;;21.09;59.85;98776.22;4974328;28;20052;-79
2022/05/23 07:02:09;;;;;;;6.80;4.05;;;;;;;21.12;59.77;98773.09;4945871;28;20561;-79
2022/05/23 07:14:09;;;;;;;8.00;4.20;;;;;;;21.18;59.66;98791.03;4962022;28;20132;-79
2022/05/23 07:16:36;;;;;;;5.85;3.85;;;;;;;21.15;60.02;98792.31;4991950;28;20185;-80
2022/05/23 07:19:05;;;;;;;5.93;4.10;;;;;;;21.16;60.36;98793.97;4983940;28;20126;-80
2022/05/23 07:21:39;;;;;;;7.68;4.22;;;;;;;21.13;59.51;98794.44;4983661;28;20046;-79
2022/05/23 07:24:10;;;;;;;4.70;3.80;;;;;;;21.17;59.25;98800.22;4976931;28;20045;-79
2022/05/23 07:26:43;;;;;;;8.07;4.35;;;;;;;21.19;59.19;98804.31;4965967;28;20494;-79
2022/05/23 07:29:13;;;;;;;7.43;3.83;;;;;;;21.22;59.39;98806.56;4953881;28;20093;-79
2022/05/23 07:31:41;;;;;;;7.72;3.80;;;;;;;21.21;58.87;98799.50;4970155;28;20121;-83
2022/05/23 07:34:08;;;;;;;6.57;4.35;;;;;;;21.20;58.43;98802.44;4976891;28;20038;-81
2022/05/23 07:36:34;;;;;;;5.20;3.88;;;;;;;21.21;58.27;98813.00;4979195;28;20050;-81
2022/05/23 07:39:10;;;;;;;11.60;4.50;;;;;;;21.25;58.73;98816.91;4962889;28;20055;-81
2022/05/23 07:41:57;;;;;;;5.10;3.80;;;;;;;21.25;59.43;98814.19;4933248;28;20047;-80
2022/05/23 07:44:26;;;;;;;7.78;4.35;;;;;;;21.33;59.58;98815.75;4956508;28;20446;-79
2022/05/23 07:46:57;;;;;;;7.68;4.35;;;;;;;21.33;59.33;98807.63;4962791;28;20130;-82
2022/05/23 07:49:26;;;;;;;5.05;4.05;;;;;;;21.35;59.54;98807.44;4978399;28;20055;-81
2022/05/23 07:52:02;;;;;;;5.03;4.13;;;;;;;21.39;58.89;98806.72;4953716;28;20050;-80
2022/05/23 08:03:18;;;;;;;6.43;4.30;;;;;;;21.51;59.86;98803.25;4944463;28;20051;-80
2022/05/23 08:06:06;;;;;;;5.88;4.03;;;;;;;21.54;59.77;98792.78;4932298;28;20465;-81
2022/05/23 08:08:34;;;;;;;7.75;4.07;;;;;;;21.55;59.25;98794.47;4948722;28;20046;-81
2022/05/23 08:11:01;;;;;;;15.65;5.07;;;;;;;21.57;59.74;98770.72;4948012;28;20516;-81
2022/05/23 08:13:36;;;;;;;7.40;4.03;;;;;;;21.62;60.09;98784.34;4971748;28;20046;-81
2022/05/23 08:16:04;;;;;;;7.45;3.97;;;;;;;21.67;60.07;98781.75;4949650;28;20047;-80
2022/05/23 08:18:31;;;;;;;10.00;4.43;;;;;;;21.72;59.96;98783.78;4966750;28;20065;-81
2022/05/23 08:20:59;;;;;;;7.28;4.43;;;;;;;21.72;59.92;98788.34;4982363;28;20406;-81
2022/05/23 08:23:31;;;;;;;5.32;4.10;;;;;;;21.72;59.50;98782.97;4977290;28;20101;-81
2022/05/23 08:26:12;;;;;;;5.47;4.78;;;;;;;21.77;59.23;98773.09;4942967;28;20053;-81
2022/05/23 08:28:43;;;;;;;7.80;4.93;;;;;;;21.72;59.37;98761.34;4965254;28;20053;-81
2022/05/23 08:31:11;;;;;;;6.68;4.18;;;;;;;21.70;59.80;98761.56;4944598;28;20451;-81
2022/05/23 08:33:44;;;;;;;5.90;3.67;;;;;;;21.74;59.95;98765.47;4954069;28;20047;-81
2022/05/23 08:36:20;;;;;;;5.35;4.00;;;;;;;21.82;59.76;98757.00;4982624;28;20546;-81
2022/05/23 08:38:46;;;;;;;4.63;3.47;;;;;;;21.83;59.88;98742.44;4979879;28;20050;-81
2022/05/23 08:41:44;;;;;;;8.07;4.00;;;;;;;21.86;59.90;98751.94;4932169;28;20050;-81
2022/05/23 08:44:49;;;;;;;9.57;4.65;;;;;;;21.94;58.89;98759.69;4919482;28;20054;-81
2022/05/23 08:47:24;;;;;;;7.47;4.18;;;;;;;21.91;58.66;98768.28;4944891;28;20043;-81
2022/05/23 08:50:10;;;;;;;8.65;4.88;;;;;;;21.94;59.02;98758.88;4952638;28;20042;-80
2022/05/23 08:52:45;;;;;;;8.60;5.00;;;;;;;22.01;59.25;98759.59;4973509;28;20068;-80
2022/05/23 08:55:40;;;;;;;7.07;4.45;;;;;;;21.95;60.08;98749.69;4914372;28;20047;-81
2022/05/23 08:58:27;;;;;;;6.28;4.43;;;;;;;21.95;59.08;98753.22;4975136;28;20050;-81
2022/05/23 09:00:59;;;;;;;6.30;5.38;;;;;;;21.84;59.57;98745.97;4958086;28;20120;-80
2022/05/23 09:03:30;;;;;;;11.45;5.53;;;;;;;21.77;60.00;98748.75;4949903;28;20047;-80
2022/05/23 09:06:02;;;;;;;8.20;4.10;;;;;;;21.84;60.23;98745.97;4962036;28;20050;-80
2022/05/23 09:08:52;;;;;;;10.07;6.03;;;;;;;21.90;60.07;98750.41;4983742;28;20063;-81
2022/05/23 09:11:24;;;;;;;8.90;6.00;;;;;;;21.94;59.14;98750.78;4985085;28;20556;-81
2022/05/23 09:13:52;;;;;;;6.50;5.07;;;;;;;21.91;58.95;98753.97;4985356;28;20055;-81
2022/05/23 09:16:19;;;;;;;9.75;4.65;;;;;;;21.89;59.56;98749.59;4985492;28;20049;-81
2022/05/23 09:18:56;;;;;;;7.63;4.43;;;;;;;21.86;59.24;98746.56;4983678;28;20057;-81
2022/05/23 09:22:12;;;;;;;6.85;4.47;;;;;;;21.88;59.57;98761.47;4948064;28;20067;-81
2022/05/23 09:24:09;;;;;;;11.40;4.35;;;;;;;21.94;58.60;98756.19;4984561;28;20410;-81
2022/05/23 09:26:37;;;;;;;7.18;4.65;;;;;;;21.94;58.88;98753.47;4982838;28;20145;-81
2022/05/23 09:29:04;;;;;;;7.70;4.25;;;;;;;21.89;59.02;98757.69;4981930;28;20043;-81
2022/05/23 09:31:45;;;;;;;11.35;4.63;;;;;;;21.84;58.44;98757.59;4980192;28;20060;-81
2022/05/23 09:34:48;;;;;;;10.48;5.22;;;;;;;21.86;58.00;98760.06;4971700;28;20043;-81
2022/05/23 09:37:21;;;;;;;8.82;5.28;;;;;;;21.97;58.03;98755.69;4961120;28;20042;-80
2022/05/23 09:39:54;;;;;;;10.02;5.75;;;;;;;22.02;58.35;98755.81;4973423;28;21952;-81
2022/05/23 09:48:21;;;;;;;7.55;5.65;;;;;;;22.04;58.27;98735.59;4951852;28;20065;-81
2022/05/23 09:50:59;;;;;;;8.07;5.22;;;;;;;22.00;59.92;98734.41;4970169;28;20050;-81
2022/05/23 09:53:28;;;;;;;8.43;5.03;;;;;;;22.08;59.21;98736.78;4939649;28;20046;-81
2022/05/23 09:56:27;;;;;;;8.07;5.50;;;;;;;22.14;59.51;98740.41;4937703;28;20228;-81
2022/05/23 10:03:13;;;;;;;7.45;4.75;;;;;;;22.17;59.59;98742.63;4946260;28;20470;-81
2022/05/23 10:05:43;;;;;;;10.20;4.70;;;;;;;22.26;59.77;98748.50;4986584;28;20073;-81
2022/05/23 10:08:33;;;;;;;10.68;5.30;;;;;;;22.38;59.05;98743.91;4948609;28;20560;-81
2022/05/23 10:11:32;;;;;;;12.23;5.40;;;;;;;22.33;59.44;98736.50;4915203;28;20057;-83
2022/05/23 10:14:15;;;;;;;9.20;4.80;;;;;;;22.24;60.45;98737.94;4930767;28;20047;-83
2022/05/23 10:16:48;;;;;;;8.18;5.03;;;;;;;22.38;60.17;98735.78;4951832;28;20068;-83
2022/05/23 10:19:36;;;;;;;10.50;5.82;;;;;;;22.41;59.43;98727.19;4943860;28;20498;-84
2022/05/23 10:22:09;;;;;;;10.75;5.70;;;;;;;22.57;59.04;98731.03;4917769;28;20504;-83
2022/05/23 10:24:39;;;;;;;8.65;4.60;;;;;;;22.62;58.51;98733.00;4923230;28;20418;-81
2022/05/23 10:27:11;;;;;;;8.38;4.38;;;;;;;22.63;58.78;98731.94;4938073;28;20069;-85
2022/05/23 10:29:53;;;;;;;5.38;4.03;;;;;;;22.65;59.34;98751.47;4900982;29;20558;-84
2022/05/23 10:32:42;;;;;;;7.97;4.18;;;;;;;22.70;58.80;98736.16;4920827;28;20098;-81
2022/05/23 10:35:28;;;;;;;7.20;4.32;;;;;;;22.73;59.00;98748.38;4920837;28;20040;-80
2022/05/23 10:42:07;;;;;;;7.05;4.05;;;;;;;22.85;58.89;98745.63;4908729;28;20050;-80
2022/05/23 10:43:51;;;;;;;7.47;4.80;;;;;;;22.90;58.77;98748.44;4914891;28;20043;-81
2022/05/23 10:46:17;;;;;;;7.20;4.75;;;;;;;22.96;58.81;98750.97;4916595;28;20066;-81
2022/05/23 10:49:04;;;;;;;6.93;4.40;;;;;;;22.95;58.72;98754.75;4924845;28;20047;-85
2022/05/23 10:51:41;;;;;;;7.35;4.45;;;;;;;23.00;59.04;98753.22;4914679;28;20831;-84
2022/05/23 10:54:32;;;;;;;8.38;5.20;;;;;;;23.04;58.79;98748.97;4969378;28;20146;-81
2022/05/23 10:57:34;;;;;;;5.45;4.47;;;;;;;23.05;58.42;98742.50;4967881;28;20058;-81
2022/05/23 11:00:14;;;;;;;6.68;4.35;;;;;;;23.10;58.85;98739.88;4959014;28;20046;-81
2022/05/23 11:03:00;;;;;;;5.38;4.10;;;;;;;23.13;58.32;98737.50;4946726;28;20054;-81
2022/05/23 11:05:49;;;;;;;4.75;3.63;;;;;;;23.17;57.76;98741.34;4961555;28;20039;-82
2022/05/23 11:08:37;;;;;;;9.20;4.53;;;;;;;23.15;57.84;98746.22;4930948;28;20495;-80
2022/05/23 11:11:51;;;;;;;7.43;4.13;;;;;;;23.14;58.09;98752.69;4965227;28;20035;-81
2022/05/23 11:14:36;;;;;;;5.30;4.32;;;;;;;23.10;57.81;98764.25;4951090;28;20256;-81
2022/05/23 11:17:03;;;;;;;8.40;4.68;;;;;;;23.18;57.74;98764.69;4944493;28;20047;-81
2022/05/23 11:19:43;;;;;;;7.93;4.18;;;;;;;23.12;57.81;98767.53;4956647;28;20098;-81
2022/05/23 11:22:28;;;;;;;10.60;4.40;;;;;;;23.08;57.94;98761.78;4931451;28;20042;-82
2022/05/23 11:25:23;;;;;;;7.30;4.88;;;;;;;23.02;57.91;98768.16;4949452;28;20046;-81
2022/05/23 11:33:45;;;;;;;6.10;4.38;;;;;;;23.08;57.81;98775.34;4953469;28;20050;-81
2022/05/23 11:36:23;;;;;;;5.72;4.00;;;;;;;23.08;57.70;98778.03;4955763;28;20047;-81
2022/05/23 11:38:51;;;;;;;6.78;4.25;;;;;;;23.10;58.10;98766.94;4943173;28;20043;-80
2022/05/23 11:41:30;;;;;;;9.32;4.25;;;;;;;22.95;58.80;98767.50;4960068;28;20042;-81
2022/05/23 11:44:00;;;;;;;7.05;4.47;;;;;;;23.02;57.91;98768.16;4950479;28;20066;-81
2022/05/23 11:47:02;;;;;;;8.13;4.60;;;;;;;22.89;60.64;98760.31;4975204;28;20047;-84
2022/05/23 11:50:13;;;;;;;6.38;4.28;;;;;;;22.84;61.17;98743.97;4934270;28;20039;-85
2022/05/23 11:52:42;;;;;;;9.80;4.57;;;;;;;22.87;60.18;98694.75;4894969;28;20047;-83
2022/05/23 11:55:12;;;;;;;7.03;4.10;;;;;;;22.85;60.56;98656.31;4928620;28;20046;-84
2022/05/23 11:57:40;;;;;;;6.03;4.28;;;;;;;22.83;60.23;98661.16;4969977;28;20046;-85
2022/05/23 12:00:26;;;;;;;6.78;4.72;;;;;;;22.82;60.24;98695.53;4976743;28;20054;-84
2022/05/23 12:03:11;;;;;;;7.07;5.13;;;;;;;22.77;61.61;98703.56;4987378;28;20042;-82
2022/05/23 12:05:38;;;;;;;8.48;4.30;;;;;;;22.75;60.92;98692.13;4967574;28;20117;-82
2022/05/23 12:08:26;;;;;;;6.18;4.80;;;;;;;22.65;62.60;98686.53;4948947;28;20047;-82
2022/05/23 12:10:55;;;;;;;8.50;4.88;;;;;;;22.68;61.69;98686.88;4958716;28;20101;-81
2022/05/23 12:13:48;;;;;;;10.40;4.90;;;;;;;22.58;63.31;98683.97;4962433;28;20447;-81
2022/05/23 12:16:36;;;;;;;10.90;5.55;;;;;;;22.59;63.86;98687.50;4952397;28;20065;-82
2022/05/23 12:19:08;;;;;;;8.52;5.20;;;;;;;22.56;64.33;98663.63;4952321;28;20057;-81
2022/05/23 12:21:38;;;;;;;14.90;5.82;;;;;;;22.54;63.56;98642.22;4976267;28;20042;-81
2022/05/23 12:24:10;;;;;;;9.88;6.13;;;;;;;22.50;65.14;98636.47;4973930;28;20180;-82
2022/05/23 12:27:18;;;;;;;9.63;5.55;;;;;;;22.48;64.01;98624.25;4973670;28;20053;-81
2022/05/23 12:29:45;;;;;;;12.30;7.53;;;;;;;22.47;64.47;98619.94;4959309;28;20050;-80
2022/05/23 12:32:21;;;;;;;7.82;5.38;;;;;;;22.44;65.09;98604.16;4973391;28;20057;-81
2022/05/23 12:34:49;;;;;;;7.78;4.85;;;;;;;22.46;64.32;98605.56;4974891;28;20054;-81
2022/05/23 12:37:30;;;;;;;13.13;6.10;;;;;;;22.44;65.80;98598.75;4974698;28;20057;-81
2022/05/23 12:40:19;;;;;;;10.32;5.60;;;;;;;22.42;66.33;98617.13;4927535;28;20058;-82
2022/05/23 12:43:25;;;;;;;9.13;5.20;;;;;;;22.40;66.72;98635.47;4935301;28;20045;-81
2022/05/23 12:46:12;;;;;;;10.25;5.70;;;;;;;22.42;65.51;98611.72;4871387;28;20596;-81
2022/05/23 12:49:13;;;;;;;11.60;5.50;;;;;;;22.43;65.63;98607.94;4963564;28;20052;-82
2022/05/23 12:52:02;;;;;;;9.13;4.90;;;;;;;22.42;66.01;98590.91;4947462;28;20042;-81
2022/05/23 12:54:31;;;;;;;10.68;5.18;;;;;;;22.47;65.45;98580.16;4930268;28;20379;-82
2022/05/23 12:57:19;;;;;;;6.45;4.57;;;;;;;22.50;65.34;98568.84;4994171;28;20042;-82
2022/05/23 12:59:52;;;;;;;7.90;4.88;;;;;;;22.49;65.69;98559.13;4980128;28;20486;-82
2022/05/23 13:02:39;;;;;;;11.77;5.75;;;;;;;22.52;65.98;98557.81;4959360;28;20114;-82
2022/05/23 13:05:13;;;;;;;8.95;5.43;;;;;;;22.50;66.18;98552.63;4947589;28;20050;-81
2022/05/23 13:08:08;;;;;;;12.30;5.53;;;;;;;22.50;66.12;98544.50;4946290;28;20391;-82
2022/05/23 13:10:39;;;;;;;8.38;5.25;;;;;;;22.56;65.46;98544.59;4893930;28;20124;-82
2022/05/23 13:13:12;;;;;;;10.05;5.47;;;;;;;22.53;67.13;98540.50;4927519;28;20043;-82
2022/05/23 13:15:41;;;;;;;8.52;5.53;;;;;;;22.53;66.40;98513.44;4923134;28;20053;-82
2022/05/23 13:24:03;;;;;;;10.60;6.05;;;;;;;22.34;65.62;98496.66;4935748;28;20087;-82
2022/05/23 13:26:32;;;;;;;12.13;6.05;;;;;;;22.29;65.97;98494.66;4922517;28;20061;-82